Terminal Aerodrome Forecast
Issued by NWS Bismarck, ND

Home | Current Version | Previous Version | Text Only | Print | Product List | Glossary On
Versions: 1 2 3 4 5 6 7 8 9 10 11 12 13 14 15 16 17 18 19
000
FTUS43 KBIS 180528
TAFBIS
TAF
KBIS 180528Z 1806/1906 VRB03KT P6SM SCT090
      TEMPO 1806/1808 31007KT BKN060 BKN080
     FM180800 32009KT P6SM SCT020 BKN035
     FM181300 32013G18KT P6SM BKN045
     FM181700 31013G19KT P6SM FEW250
     FM190000 24003KT P6SM SKC=

USA.gov is the U.S. government's official web portal to all federal, state and local government web resources and services.